Time;durP1;ratioP1;P1;durP2;ratioP2;P2;SDS_P1;SDS_P2;PMS_P1;PMS_P2;Temp;Humidity;BMP_temperature;BMP_pressure;BME280_temperature;BME280_humidity;BME280_pressure;Samples;Min_cycle;Max_cycle;Signal;HPM_P1;HPM_P2
2021/06/18 05:43:31;;;;;;;11.27;7.03;;;20.30;99.90;;;;;;4927242;23;20292;-87
2021/06/18 05:45:58;;;;;;;11.23;7.57;;;20.40;99.90;;;;;;4915034;29;20217;-87
2021/06/18 05:48:25;;;;;;;9.37;6.93;;;20.50;99.90;;;;;;4922846;29;20229;-86
2021/06/18 05:50:52;;;;;;;12.80;8.07;;;20.40;99.90;;;;;;4920539;29;20218;-86
2021/06/18 05:53:19;;;;;;;12.70;7.47;;;20.40;99.90;;;;;;4921959;29;20560;-87
2021/06/18 05:55:46;;;;;;;9.93;7.03;;;20.40;99.90;;;;;;4920843;29;20240;-87
2021/06/18 05:58:13;;;;;;;11.37;7.23;;;20.40;99.90;;;;;;4920113;29;20708;-86
2021/06/18 06:00:42;;;;;;;15.20;7.83;;;20.40;99.90;;;;;;4921097;29;20215;-85
2021/06/18 06:03:09;;;;;;;11.10;7.30;;;20.30;99.90;;;;;;4921164;29;20209;-88
2021/06/18 06:05:36;;;;;;;10.40;7.43;;;20.40;99.90;;;;;;4920750;29;20224;-89
2021/06/18 06:08:02;;;;;;;9.35;6.95;;;20.50;99.90;;;;;;4920334;29;20233;-87
2021/06/18 06:10:29;;;;;;;8.97;6.30;;;20.50;99.90;;;;;;4922231;29;20205;-87
2021/06/18 06:12:56;;;;;;;7.93;6.07;;;20.40;99.90;;;;;;4918940;29;20209;-85
2021/06/18 06:15:23;;;;;;;7.63;6.43;;;20.40;99.90;;;;;;4921947;29;20210;-87
2021/06/18 06:17:51;;;;;;;10.10;6.87;;;20.50;99.90;;;;;;4921447;29;20229;-89
2021/06/18 06:20:18;;;;;;;8.53;6.20;;;20.70;99.90;;;;;;4925365;29;20277;-88
2021/06/18 06:22:45;;;;;;;8.60;6.63;;;20.70;99.90;;;;;;4924892;29;20300;-89
2021/06/18 06:25:13;;;;;;;9.20;6.82;;;20.80;99.90;;;;;;4919909;29;20221;-78
2021/06/18 06:27:40;;;;;;;10.57;7.05;;;21.00;99.90;;;;;;4920134;29;20225;-81
2021/06/18 06:30:08;;;;;;;8.40;6.38;;;21.20;99.90;;;;;;4920574;29;20217;-81
2021/06/18 06:32:36;;;;;;;6.35;5.47;;;21.30;99.90;;;;;;4921108;29;20320;-80
2021/06/18 06:35:06;;;;;;;7.53;6.05;;;21.30;99.90;;;;;;4919295;29;20217;-74
2021/06/18 06:37:33;;;;;;;10.57;6.15;;;21.50;99.90;;;;;;4919029;29;20237;-75
2021/06/18 06:39:59;;;;;;;10.82;5.65;;;21.70;99.90;;;;;;4918380;29;20241;-77
2021/06/18 06:42:26;;;;;;;7.50;5.57;;;21.70;99.90;;;;;;4919645;29;20217;-78
2021/06/18 06:44:53;;;;;;;8.38;4.75;;;21.80;99.90;;;;;;4919900;29;20209;-76
2021/06/18 06:47:20;;;;;;;9.23;4.75;;;21.90;99.90;;;;;;4920410;29;20324;-76
2021/06/18 06:49:48;;;;;;;5.30;4.13;;;21.90;99.90;;;;;;4919890;29;20216;-76
2021/06/18 06:52:18;;;;;;;6.43;4.60;;;22.00;99.90;;;;;;4919829;29;20210;-78
2021/06/18 06:54:45;;;;;;;5.47;4.45;;;22.20;99.90;;;;;;4919591;29;20751;-75
2021/06/18 06:57:14;;;;;;;6.80;3.83;;;22.50;99.90;;;;;;4919810;29;20241;-75
2021/06/18 06:59:41;;;;;;;7.03;4.07;;;22.60;99.90;;;;;;4919840;29;20249;-76
2021/06/18 07:02:08;;;;;;;5.15;3.00;;;22.80;99.90;;;;;;4919813;29;20256;-75
2021/06/18 07:04:35;;;;;;;6.00;3.50;;;23.60;99.90;;;;;;4919818;29;20214;-75
2021/06/18 07:07:02;;;;;;;7.43;3.20;;;24.10;99.90;;;;;;4919299;29;20226;-75
2021/06/18 07:09:30;;;;;;;4.22;2.83;;;24.20;99.90;;;;;;4919464;29;20216;-75
2021/06/18 07:11:56;;;;;;;4.47;3.00;;;24.60;99.90;;;;;;4919712;29;20221;-75
2021/06/18 07:14:23;;;;;;;4.35;2.90;;;24.50;99.90;;;;;;4919541;29;20220;-76
2021/06/18 07:16:50;;;;;;;5.05;3.30;;;24.00;99.90;;;;;;4919389;29;20252;-75
2021/06/18 07:19:17;;;;;;;5.78;3.13;;;24.00;99.90;;;;;;4919432;29;20209;-75
2021/06/18 07:21:43;;;;;;;4.70;2.80;;;24.40;99.90;;;;;;4919191;29;20217;-75
2021/06/18 07:24:10;;;;;;;4.82;3.25;;;24.90;99.90;;;;;;4919374;29;20209;-75
2021/06/18 07:26:38;;;;;;;5.90;3.75;;;25.00;99.90;;;;;;4919355;29;20212;-76
2021/06/18 07:29:05;;;;;;;4.57;3.40;;;24.40;99.90;;;;;;4919012;29;20212;-75
2021/06/18 07:31:32;;;;;;;5.93;3.47;;;24.20;99.90;;;;;;4918113;29;20210;-77
2021/06/18 07:33:59;;;;;;;7.82;3.65;;;23.90;99.90;;;;;;4919130;29;20556;-76
2021/06/18 07:36:25;;;;;;;5.25;3.45;;;23.80;99.90;;;;;;4918741;29;20234;-76
2021/06/18 07:38:52;;;;;;;5.45;3.47;;;24.20;99.90;;;;;;4919245;29;20216;-76
2021/06/18 07:41:19;;;;;;;4.35;3.35;;;24.70;99.90;;;;;;4918965;29;20217;-76
2021/06/18 07:43:47;;;;;;;5.97;3.90;;;24.70;99.90;;;;;;4918884;29;20224;-76
2021/06/18 07:46:14;;;;;;;5.47;3.45;;;24.80;99.90;;;;;;4919240;29;20213;-76
2021/06/18 07:48:41;;;;;;;5.15;3.80;;;24.80;99.90;;;;;;4918670;29;20244;-76
2021/06/18 07:51:09;;;;;;;7.68;3.58;;;24.80;99.90;;;;;;4919102;29;20210;-77
2021/06/18 07:53:36;;;;;;;5.25;3.72;;;25.00;99.90;;;;;;4918567;29;20213;-77
2021/06/18 07:56:03;;;;;;;5.60;3.92;;;25.60;99.90;;;;;;4918739;29;20260;-76
2021/06/18 07:58:29;;;;;;;5.25;3.58;;;26.40;99.90;;;;;;4918711;29;20233;-73
2021/06/18 08:00:58;;;;;;;5.68;3.97;;;26.70;99.90;;;;;;4918792;29;20223;-76
2021/06/18 08:03:24;;;;;;;7.25;4.60;;;26.80;99.90;;;;;;4918759;29;20217;-76
2021/06/18 08:05:51;;;;;;;7.07;4.32;;;26.60;99.90;;;;;;4918455;29;20215;-77
2021/06/18 08:08:18;;;;;;;6.18;4.60;;;26.30;99.90;;;;;;4918442;29;20229;-74
2021/06/18 08:10:45;;;;;;;5.53;4.40;;;26.30;99.90;;;;;;4918893;29;20220;-74
2021/06/18 08:13:11;;;;;;;6.28;4.63;;;26.70;99.90;;;;;;4918351;29;20220;-77
2021/06/18 08:15:38;;;;;;;8.80;5.30;;;26.40;99.90;;;;;;4918314;29;20214;-78
2021/06/18 08:18:07;;;;;;;6.97;4.93;;;26.30;99.90;;;;;;4917692;29;20783;-77
2021/06/18 08:20:34;;;;;;;7.25;4.82;;;26.90;99.90;;;;;;4918292;29;20213;-76
2021/06/18 08:23:01;;;;;;;6.82;4.72;;;27.50;99.90;;;;;;4918426;29;20216;-77
2021/06/18 08:25:28;;;;;;;6.55;4.45;;;27.90;99.90;;;;;;4918281;29;20209;-77
2021/06/18 08:27:54;;;;;;;6.07;5.13;;;28.50;99.90;;;;;;4917787;29;20244;-77
2021/06/18 08:30:24;;;;;;;6.10;4.97;;;28.80;99.90;;;;;;4917899;29;20225;-77
2021/06/18 08:32:51;;;;;;;7.78;5.32;;;28.70;99.90;;;;;;4917702;29;20296;-75
2021/06/18 08:35:20;;;;;;;6.22;5.32;;;28.50;99.90;;;;;;4917998;29;20209;-76
2021/06/18 08:37:48;;;;;;;6.82;5.15;;;28.60;99.90;;;;;;4917926;29;20245;-75
2021/06/18 08:40:16;;;;;;;8.35;5.35;;;28.10;99.90;;;;;;4917781;29;20214;-75
2021/06/18 08:42:43;;;;;;;6.32;5.18;;;27.70;99.90;;;;;;4917505;29;20217;-73
2021/06/18 08:45:11;;;;;;;5.75;5.18;;;27.60;99.90;;;;;;4917564;29;20217;-74
2021/06/18 08:47:38;;;;;;;8.73;5.50;;;27.40;99.90;;;;;;4917858;29;20608;-75
2021/06/18 08:50:07;;;;;;;8.50;5.43;;;27.50;99.90;;;;;;4917462;29;20689;-75
2021/06/18 08:52:38;;;;;;;6.85;4.63;;;27.90;99.90;;;;;;4917722;29;20214;-75
2021/06/18 08:55:06;;;;;;;5.88;5.05;;;28.60;99.90;;;;;;4917555;29;20217;-75
2021/06/18 08:57:34;;;;;;;5.70;4.63;;;29.00;99.90;;;;;;4917340;29;20242;-75
2021/06/18 09:00:01;;;;;;;8.05;5.22;;;29.10;99.90;;;;;;4917742;29;20210;-74
2021/06/18 09:02:28;;;;;;;6.68;5.13;;;29.30;99.90;;;;;;4917364;29;20216;-74
2021/06/18 09:05:09;;;;;;;6.55;4.68;;;29.40;99.90;;;;;;4917439;29;20213;-74
2021/06/18 09:08:07;;;;;;;5.28;4.78;;;29.40;99.90;;;;;;4916981;29;20738;-75
2021/06/18 09:10:36;;;;;;;6.85;4.43;;;29.40;99.90;;;;;;4840378;29;20209;-75
2021/06/18 09:13:12;;;;;;;8.35;4.93;;;30.20;99.90;;;;;;4900789;29;20220;-75
2021/06/18 09:15:41;;;;;;;6.70;4.47;;;30.60;99.90;;;;;;4917151;29;20299;-75
2021/06/18 09:18:32;;;;;;;5.80;4.50;;;30.20;99.90;;;;;;4916808;29;20241;-76
2021/06/18 09:21:21;;;;;;;7.55;4.55;;;30.40;99.90;;;;;;4917315;29;20613;-76
2021/06/18 09:23:51;;;;;;;5.78;3.95;;;30.50;99.90;;;;;;4911772;29;20216;-76
2021/06/18 09:26:21;;;;;;;9.85;4.05;;;30.10;99.90;;;;;;4917261;29;20212;-77
2021/06/18 09:29:05;;;;;;;7.57;4.15;;;30.30;99.90;;;;;;4916801;29;20315;-76
2021/06/18 09:31:34;;;;;;;12.57;4.40;;;30.30;99.90;;;;;;4917047;29;20209;-76
2021/06/18 09:34:02;;;;;;;6.20;3.83;;;30.50;99.90;;;;;;4916917;29;20216;-76
2021/06/18 09:36:28;;;;;;;5.03;3.80;;;30.80;99.90;;;;;;4917413;29;20233;-77
2021/06/18 09:38:58;;;;;;;6.40;4.15;;;30.30;99.90;;;;;;4917654;29;20220;-76
2021/06/18 09:41:33;;;;;;;7.47;3.88;;;30.60;99.90;;;;;;4917461;29;20220;-76
2021/06/18 09:44:02;;;;;;;7.55;3.45;;;30.70;99.90;;;;;;4916921;29;20220;-76
2021/06/18 09:46:49;;;;;;;4.95;3.92;;;30.50;99.90;;;;;;4916768;29;20209;-76
2021/06/18 09:49:37;;;;;;;5.10;3.55;;;30.70;99.90;;;;;;4916573;29;20235;-76
2021/06/18 09:52:05;;;;;;;5.70;3.50;;;30.50;99.90;;;;;;4917188;29;20221;-76
2021/06/18 09:54:39;;;;;;;6.22;3.47;;;30.30;99.90;;;;;;4916385;29;20218;-76
2021/06/18 09:57:12;;;;;;;5.53;3.00;;;30.00;99.90;;;;;;4916674;29;20241;-77
2021/06/18 09:59:46;;;;;;;7.65;3.88;;;30.30;99.90;;;;;;4916525;29;20217;-76
2021/06/18 10:02:13;;;;;;;6.18;3.85;;;30.10;99.90;;;;;;4916565;29;20217;-76
2021/06/18 10:04:41;;;;;;;5.18;3.40;;;30.30;99.90;;;;;;4916529;29;20209;-76
2021/06/18 10:07:08;;;;;;;4.60;3.58;;;30.10;99.90;;;;;;4916710;29;20229;-75
2021/06/18 10:09:38;;;;;;;5.95;3.50;;;30.10;99.90;;;;;;4916505;29;20213;-77
2021/06/18 10:12:06;;;;;;;6.55;3.42;;;29.90;99.90;;;;;;4916435;29;20221;-76
2021/06/18 10:14:33;;;;;;;6.90;3.13;;;29.90;99.90;;;;;;4916526;29;20228;-76
2021/06/18 10:17:00;;;;;;;5.63;2.90;;;29.60;99.90;;;;;;4916335;29;20336;-75
2021/06/18 10:19:30;;;;;;;3.60;2.72;;;29.70;99.90;;;;;;4916910;29;20320;-76
2021/06/18 10:22:02;;;;;;;6.93;3.00;;;29.70;99.90;;;;;;4916404;29;20249;-77
2021/06/18 10:24:35;;;;;;;4.53;2.33;;;30.00;99.90;;;;;;4916748;29;20210;-76
2021/06/18 10:27:07;;;;;;;4.90;2.58;;;30.20;99.90;;;;;;4916227;29;20233;-76
2021/06/18 10:29:38;;;;;;;7.35;2.60;;;30.50;99.90;;;;;;4916475;29;20209;-76
2021/06/18 10:32:31;;;;;;;3.85;1.83;;;30.50;99.90;;;;;;4916126;29;20265;-77
2021/06/18 10:34:59;;;;;;;3.33;1.90;;;30.70;99.90;;;;;;4916212;29;20213;-76
2021/06/18 10:37:27;;;;;;;3.38;2.20;;;30.70;99.90;;;;;;4915891;29;20245;-76
2021/06/18 10:39:56;;;;;;;6.18;1.80;;;30.80;99.90;;;;;;4916416;29;20224;-76
2021/06/18 10:42:25;;;;;;;4.43;1.95;;;30.70;99.90;;;;;;4916331;29;20640;-74
2021/06/18 10:44:53;;;;;;;5.65;1.88;;;30.80;99.90;;;;;;4916360;29;20212;-75
2021/06/18 10:47:45;;;;;;;3.13;1.83;;;30.80;99.90;;;;;;4916686;29;20230;-76
2021/06/18 10:50:13;;;;;;;3.50;2.00;;;30.90;99.90;;;;;;4916337;29;20696;-75
2021/06/18 10:52:43;;;;;;;2.58;1.85;;;30.90;99.90;;;;;;4916472;29;20210;-75
2021/06/18 10:55:10;;;;;;;5.13;2.30;;;30.80;99.90;;;;;;4916571;29;20217;-76
2021/06/18 10:57:51;;;;;;;3.00;1.80;;;30.70;99.90;;;;;;4916246;29;20272;-76
2021/06/18 11:00:27;;;;;;;4.93;1.90;;;30.80;99.90;;;;;;4916595;29;20250;-77
2021/06/18 11:02:53;;;;;;;6.72;2.13;;;31.20;99.90;;;;;;4916767;29;20307;-78
2021/06/18 11:05:41;;;;;;;5.32;2.10;;;31.40;99.90;;;;;;4918619;29;20222;-75
2021/06/18 11:08:29;;;;;;;3.97;2.03;;;31.30;99.90;;;;;;4919376;29;20244;-75
2021/06/18 11:10:59;;;;;;;4.25;1.92;;;31.10;99.90;;;;;;4919360;29;20206;-74
2021/06/18 11:13:28;;;;;;;6.30;2.25;;;31.20;99.90;;;;;;4919540;29;20218;-74
2021/06/18 11:15:55;;;;;;;2.92;1.80;;;31.40;99.90;;;;;;4919645;29;20205;-74
2021/06/18 11:18:37;;;;;;;3.30;1.83;;;31.60;99.90;;;;;;4919072;29;20241;-76
2021/06/18 11:21:07;;;;;;;2.03;1.58;;;31.80;99.90;;;;;;4919234;29;20281;-76
2021/06/18 11:23:37;;;;;;;3.00;2.08;;;31.60;99.90;;;;;;4919153;29;20216;-75
2021/06/18 11:26:12;;;;;;;2.03;1.73;;;31.50;99.90;;;;;;4919219;29;20216;-74
2021/06/18 11:28:52;;;;;;;4.90;1.83;;;31.50;99.90;;;;;;4918925;29;20237;-75
2021/06/18 11:31:50;;;;;;;1.90;1.60;;;31.60;99.90;;;;;;4918940;29;20206;-76
2021/06/18 11:34:29;;;;;;;1.95;1.60;;;31.50;99.60;;;;;;4919210;29;20210;-76
2021/06/18 11:36:56;;;;;;;4.45;1.60;;;31.30;99.70;;;;;;4919532;29;20236;-74
2021/06/18 11:39:25;;;;;;;4.45;1.90;;;31.30;99.90;;;;;;4918950;29;20550;-75
2021/06/18 11:42:09;;;;;;;3.53;1.95;;;31.20;99.90;;;;;;4918858;29;20206;-75
2021/06/18 11:44:39;;;;;;;2.20;1.55;;;31.40;99.30;;;;;;4918966;29;20209;-74
2021/06/18 11:47:07;;;;;;;3.55;2.08;;;31.30;99.20;;;;;;4918947;29;20233;-74
2021/06/18 11:49:35;;;;;;;2.30;1.67;;;31.30;98.70;;;;;;4918892;29;20209;-74
2021/06/18 11:52:05;;;;;;;1.70;1.60;;;31.20;98.80;;;;;;4918545;29;20673;-73
2021/06/18 11:54:34;;;;;;;2.33;2.00;;;31.30;99.90;;;;;;4918654;29;20212;-75
2021/06/18 11:57:03;;;;;;;2.88;1.73;;;31.30;99.10;;;;;;4918445;29;20263;-74
2021/06/18 11:59:30;;;;;;;2.40;1.77;;;31.30;99.30;;;;;;4918818;29;20223;-74
2021/06/18 12:01:59;;;;;;;2.10;1.70;;;31.30;97.90;;;;;;4918663;29;20372;-76
2021/06/18 12:04:27;;;;;;;2.55;1.70;;;31.30;98.20;;;;;;4918593;29;20214;-75
2021/06/18 12:06:54;;;;;;;2.80;1.70;;;31.30;96.50;;;;;;4913189;29;20226;-76
2021/06/18 12:09:22;;;;;;;1.85;1.35;;;31.20;97.00;;;;;;4918287;29;20213;-76
2021/06/18 12:11:59;;;;;;;2.20;1.70;;;31.30;98.20;;;;;;4918533;29;20665;-76
2021/06/18 12:14:34;;;;;;;1.98;1.55;;;31.60;97.70;;;;;;4918431;29;20226;-74
2021/06/18 12:17:03;;;;;;;3.38;2.00;;;31.90;97.80;;;;;;4917909;29;20233;-74
2021/06/18 12:19:31;;;;;;;3.08;1.50;;;32.10;96.20;;;;;;4918327;29;20214;-76
2021/06/18 12:21:59;;;;;;;5.95;1.60;;;32.00;95.00;;;;;;4917991;29;20220;-76
2021/06/18 12:24:29;;;;;;;2.50;1.85;;;32.00;94.90;;;;;;4918347;29;20216;-76
2021/06/18 12:26:57;;;;;;;3.85;1.70;;;31.80;95.60;;;;;;4918209;29;20230;-78
2021/06/18 12:29:25;;;;;;;4.22;1.70;;;31.70;95.00;;;;;;4918039;29;20598;-78
2021/06/18 12:31:55;;;;;;;2.67;1.50;;;31.80;94.70;;;;;;4917624;29;20219;-77
2021/06/18 12:34:23;;;;;;;2.28;1.60;;;31.80;94.80;;;;;;4917820;29;20210;-77
2021/06/18 12:37:05;;;;;;;2.58;1.90;;;31.60;94.00;;;;;;4918194;29;20222;-77
2021/06/18 12:39:32;;;;;;;1.77;1.55;;;31.40;94.10;;;;;;4918075;29;20645;-77
2021/06/18 12:41:59;;;;;;;2.40;1.77;;;31.40;95.80;;;;;;4917925;29;20216;-76
2021/06/18 12:44:36;;;;;;;1.92;1.52;;;31.30;94.90;;;;;;4917670;29;20225;-76
2021/06/18 12:47:09;;;;;;;2.03;1.77;;;31.30;95.20;;;;;;4917977;29;20225;-77
2021/06/18 12:49:37;;;;;;;2.25;1.65;;;31.20;95.50;;;;;;4917717;29;20237;-77
2021/06/18 12:52:13;;;;;;;3.28;1.85;;;31.20;95.30;;;;;;4917691;29;20218;-77
2021/06/18 12:54:40;;;;;;;4.03;1.70;;;31.30;95.30;;;;;;4917637;29;20209;-78
2021/06/18 12:57:07;;;;;;;2.10;1.80;;;31.40;95.60;;;;;;4917527;29;20239;-78
2021/06/18 12:59:39;;;;;;;1.85;1.70;;;31.50;95.60;;;;;;4917337;29;20241;-78
2021/06/18 13:02:06;;;;;;;3.83;2.03;;;31.40;95.40;;;;;;4917496;29;20209;-79
2021/06/18 13:04:34;;;;;;;3.92;1.98;;;31.40;95.30;;;;;;4917558;29;20213;-79
2021/06/18 13:07:03;;;;;;;3.90;2.03;;;31.60;95.30;;;;;;4917721;29;20237;-79
2021/06/18 13:09:35;;;;;;;2.75;1.92;;;31.60;95.30;;;;;;4917280;29;20548;-78
2021/06/18 13:12:03;;;;;;;5.30;1.83;;;31.50;95.20;;;;;;4917243;29;20214;-77
2021/06/18 13:14:39;;;;;;;3.92;1.70;;;31.60;95.10;;;;;;4917070;29;20214;-77
2021/06/18 13:17:07;;;;;;;2.30;1.77;;;31.70;95.70;;;;;;4917259;29;20237;-77
2021/06/18 13:19:44;;;;;;;2.45;1.95;;;31.80;94.90;;;;;;4916870;29;20604;-77
2021/06/18 13:22:14;;;;;;;3.55;1.70;;;31.60;94.50;;;;;;4917022;29;20300;-77
2021/06/18 13:24:49;;;;;;;3.75;1.70;;;31.70;95.20;;;;;;4917280;29;20219;-78
2021/06/18 13:27:17;;;;;;;1.95;1.70;;;31.90;96.00;;;;;;4916750;29;20237;-79
2021/06/18 13:29:51;;;;;;;4.15;1.75;;;32.00;95.70;;;;;;4916495;29;20210;-78
2021/06/18 13:32:19;;;;;;;2.47;1.52;;;31.90;95.40;;;;;;4917126;29;20213;-79
2021/06/18 13:34:53;;;;;;;3.15;1.92;;;32.00;95.30;;;;;;4916732;29;20213;-78
2021/06/18 13:37:24;;;;;;;4.05;1.55;;;31.90;94.40;;;;;;4917048;29;20256;-78
2021/06/18 13:40:05;;;;;;;4.00;1.63;;;31.70;93.60;;;;;;4917046;29;20216;-78
2021/06/18 13:42:32;;;;;;;3.45;1.90;;;31.40;94.60;;;;;;4916764;29;20229;-79
2021/06/18 13:44:59;;;;;;;4.43;1.63;;;31.40;95.10;;;;;;4916568;29;20253;-77
2021/06/18 13:47:26;;;;;;;7.10;1.90;;;31.30;94.40;;;;;;4916810;29;20233;-77
2021/06/18 13:50:00;;;;;;;3.80;2.35;;;31.30;95.00;;;;;;4916872;29;20212;-77
2021/06/18 13:52:29;;;;;;;5.25;1.95;;;31.20;95.80;;;;;;4917549;29;20216;-77
2021/06/18 13:54:56;;;;;;;2.65;1.65;;;31.20;95.40;;;;;;4917712;29;20262;-78
2021/06/18 13:57:22;;;;;;;5.70;1.90;;;31.10;96.10;;;;;;4916972;29;20654;-78
2021/06/18 13:59:49;;;;;;;6.57;1.85;;;31.20;96.30;;;;;;4916673;29;20241;-78
2021/06/18 14:02:17;;;;;;;6.10;2.30;;;31.20;96.70;;;;;;4916904;29;20217;-78
2021/06/18 14:04:45;;;;;;;8.15;2.00;;;31.20;95.90;;;;;;4917162;29;20244;-78
2021/06/18 14:07:12;;;;;;;4.00;1.88;;;31.00;96.30;;;;;;4916441;29;20229;-78
2021/06/18 14:09:41;;;;;;;6.82;1.92;;;30.90;96.70;;;;;;4916740;29;20700;-78
2021/06/18 14:12:10;;;;;;;5.95;2.15;;;30.80;96.60;;;;;;4916523;29;20661;-78
2021/06/18 14:14:44;;;;;;;5.22;1.90;;;30.90;97.30;;;;;;4916553;29;20300;-78
2021/06/18 14:17:15;;;;;;;3.10;1.83;;;31.10;97.60;;;;;;4916415;29;20226;-78
2021/06/18 14:19:42;;;;;;;4.53;1.83;;;31.30;97.00;;;;;;4916688;29;20237;-79
2021/06/18 14:22:09;;;;;;;6.78;1.90;;;31.40;97.40;;;;;;4916825;29;20209;-78
2021/06/18 14:24:36;;;;;;;8.27;2.50;;;31.60;96.80;;;;;;4916501;29;20229;-78
2021/06/18 14:27:06;;;;;;;3.65;2.20;;;31.90;98.00;;;;;;4916325;29;20236;-79
2021/06/18 14:29:33;;;;;;;5.65;2.00;;;32.20;97.60;;;;;;4916339;29;20265;-78
2021/06/18 14:32:02;;;;;;;4.57;2.00;;;32.00;96.40;;;;;;4916377;29;20218;-78
2021/06/18 14:34:29;;;;;;;5.82;2.35;;;31.80;96.80;;;;;;4916367;29;20210;-79
2021/06/18 14:36:55;;;;;;;4.85;2.17;;;31.90;97.40;;;;;;4916324;29;20620;-78
2021/06/18 14:39:22;;;;;;;5.15;2.60;;;31.80;96.00;;;;;;4916823;29;20233;-78
2021/06/18 14:41:49;;;;;;;3.40;1.98;;;31.80;97.20;;;;;;4920132;29;20220;-77
2021/06/18 14:44:17;;;;;;;7.00;1.90;;;31.80;96.20;;;;;;4919872;29;20676;-78
2021/06/18 14:46:44;;;;;;;6.30;1.95;;;31.50;96.70;;;;;;4919821;29;20217;-78
2021/06/18 14:49:11;;;;;;;4.20;1.73;;;31.40;96.60;;;;;;4919720;29;20300;-78
2021/06/18 14:51:39;;;;;;;6.22;1.83;;;31.10;96.70;;;;;;4919885;29;20213;-78
2021/06/18 14:54:07;;;;;;;4.15;2.03;;;31.10;96.40;;;;;;4919683;29;20683;-78
2021/06/18 14:56:36;;;;;;;7.30;2.28;;;31.00;96.70;;;;;;4919809;29;20210;-78
2021/06/18 14:59:03;;;;;;;5.15;2.08;;;31.00;96.90;;;;;;4919618;29;20244;-78
2021/06/18 15:01:31;;;;;;;4.85;2.00;;;30.80;96.40;;;;;;4919685;29;20213;-78
2021/06/18 15:03:58;;;;;;;5.65;1.92;;;30.90;97.70;;;;;;4919662;29;20216;-78
2021/06/18 15:06:26;;;;;;;11.13;2.10;;;30.90;96.50;;;;;;4919300;29;20221;-78
2021/06/18 15:08:53;;;;;;;2.97;2.28;;;30.90;97.30;;;;;;4919756;29;20206;-78
2021/06/18 15:11:20;;;;;;;7.07;2.40;;;31.10;96.80;;;;;;4919455;29;20300;-77
2021/06/18 15:13:47;;;;;;;8.23;2.05;;;31.30;97.00;;;;;;4919081;29;20228;-78
2021/06/18 15:16:14;;;;;;;4.03;1.60;;;31.60;95.60;;;;;;4919371;29;20210;-78
2021/06/18 15:18:42;;;;;;;4.65;1.92;;;31.50;94.90;;;;;;4919271;29;20234;-77
2021/06/18 15:21:09;;;;;;;2.58;1.85;;;31.60;94.90;;;;;;4918857;29;20669;-78
2021/06/18 15:23:36;;;;;;;5.72;1.80;;;31.60;95.10;;;;;;4919420;29;20213;-78
2021/06/18 15:26:05;;;;;;;2.75;1.77;;;31.50;96.00;;;;;;4918973;29;20210;-78
2021/06/18 15:28:31;;;;;;;3.25;1.70;;;31.40;95.80;;;;;;4919230;29;20604;-77
2021/06/18 15:30:58;;;;;;;4.57;2.20;;;31.30;96.20;;;;;;4919488;29;20310;-78
2021/06/18 15:33:25;;;;;;;5.78;1.70;;;31.30;96.20;;;;;;4919003;29;20221;-78
2021/06/18 15:35:53;;;;;;;5.53;2.00;;;31.20;95.70;;;;;;4919174;29;20679;-78
2021/06/18 15:38:20;;;;;;;6.28;2.30;;;31.10;95.70;;;;;;4919035;29;20225;-78
2021/06/18 15:40:47;;;;;;;3.75;1.80;;;31.10;96.40;;;;;;4918910;29;20612;-77
2021/06/18 15:43:14;;;;;;;5.85;1.70;;;30.90;96.50;;;;;;4918599;29;20221;-77
2021/06/18 15:45:41;;;;;;;2.55;1.63;;;30.80;96.60;;;;;;4918708;29;20206;-77
2021/06/18 15:48:08;;;;;;;2.67;1.80;;;30.70;96.10;;;;;;4918453;29;20229;-77
2021/06/18 15:50:35;;;;;;;5.00;2.20;;;30.60;96.30;;;;;;4918659;29;20233;-77
2021/06/18 15:53:03;;;;;;;4.55;2.17;;;30.50;97.00;;;;;;4918504;29;20687;-77
2021/06/18 15:55:30;;;;;;;3.47;2.10;;;30.40;96.60;;;;;;4918634;29;20209;-77
2021/06/18 15:57:57;;;;;;;4.30;2.05;;;30.40;96.70;;;;;;4918590;29;20252;-77
2021/06/18 16:00:24;;;;;;;3.38;1.83;;;30.30;96.70;;;;;;4918440;29;20248;-76
2021/06/18 16:02:53;;;;;;;3.80;1.92;;;30.30;97.10;;;;;;4918301;29;20205;-77
2021/06/18 16:05:20;;;;;;;5.75;2.03;;;30.30;97.50;;;;;;4918673;29;20417;-76
2021/06/18 16:07:47;;;;;;;2.95;1.85;;;30.40;97.80;;;;;;4918437;29;20234;-75
2021/06/18 16:10:16;;;;;;;6.95;2.30;;;30.40;97.30;;;;;;4918572;29;20300;-78
2021/06/18 16:12:42;;;;;;;3.72;1.80;;;30.40;97.40;;;;;;4918577;29;20220;-78
2021/06/18 16:15:10;;;;;;;2.75;2.20;;;30.50;98.00;;;;;;4917942;29;20687;-77
2021/06/18 16:17:37;;;;;;;2.97;1.90;;;30.50;97.20;;;;;;4918369;29;20234;-77
2021/06/18 16:20:05;;;;;;;4.93;2.65;;;30.40;98.00;;;;;;4918180;29;20607;-76
2021/06/18 16:22:32;;;;;;;7.00;2.35;;;30.30;99.90;;;;;;4918757;29;20217;-77
2021/06/18 16:24:59;;;;;;;3.90;2.15;;;30.00;99.90;;;;;;4918486;29;20206;-77
2021/06/18 16:27:27;;;;;;;3.30;2.28;;;30.00;99.90;;;;;;4918247;29;20236;-77
2021/06/18 16:29:54;;;;;;;5.07;2.10;;;30.00;99.90;;;;;;4917865;29;20566;-77
2021/06/18 16:32:22;;;;;;;3.47;2.15;;;30.00;99.90;;;;;;4918352;29;20210;-75
2021/06/18 16:34:49;;;;;;;4.07;1.88;;;29.90;99.90;;;;;;4918189;29;20665;-78
2021/06/18 16:37:16;;;;;;;3.60;2.25;;;29.80;99.90;;;;;;4918184;29;20232;-77
2021/06/18 16:39:43;;;;;;;5.80;2.10;;;29.70;99.90;;;;;;4917429;29;20238;-76
2021/06/18 16:42:10;;;;;;;2.28;1.80;;;29.90;99.90;;;;;;4917549;29;20209;-77
2021/06/18 16:44:38;;;;;;;2.97;1.90;;;29.90;99.90;;;;;;4917618;29;20221;-77
2021/06/18 16:47:05;;;;;;;3.80;2.08;;;30.00;99.90;;;;;;4918158;29;20233;-77
2021/06/18 16:49:32;;;;;;;5.32;2.00;;;30.20;99.90;;;;;;4917682;29;20683;-78
2021/06/18 16:51:59;;;;;;;2.88;1.90;;;30.30;99.90;;;;;;4917559;29;20205;-77
2021/06/18 16:54:26;;;;;;;2.80;1.90;;;30.30;99.90;;;;;;4917595;29;20210;-77
2021/06/18 16:56:57;;;;;;;2.88;1.95;;;30.30;99.90;;;;;;4917392;29;20229;-77
2021/06/18 16:59:24;;;;;;;3.47;1.83;;;30.30;99.90;;;;;;4917269;29;20241;-77
2021/06/18 17:01:55;;;;;;;2.15;1.77;;;30.30;99.90;;;;;;4917283;29;20239;-78
2021/06/18 17:04:22;;;;;;;5.30;1.80;;;30.40;99.90;;;;;;4917224;29;20261;-78
2021/06/18 17:06:55;;;;;;;3.72;1.77;;;30.30;99.90;;;;;;4917116;29;20233;-78
2021/06/18 17:09:21;;;;;;;3.00;1.52;;;30.40;99.90;;;;;;4917052;29;20268;-77
2021/06/18 17:11:48;;;;;;;1.63;1.30;;;30.30;99.90;;;;;;4917439;29;20217;-78
2021/06/18 17:14:31;;;;;;;2.92;1.13;;;30.20;98.90;;;;;;4917131;29;20210;-77
2021/06/18 17:16:59;;;;;;;3.67;1.30;;;29.90;98.60;;;;;;4917122;29;20229;-77
2021/06/18 17:19:26;;;;;;;4.35;1.27;;;29.90;99.40;;;;;;4916695;29;20233;-78
2021/06/18 17:21:53;;;;;;;4.45;1.45;;;29.90;99.30;;;;;;4916965;29;20291;-77
2021/06/18 17:24:21;;;;;;;3.50;1.23;;;30.00;99.60;;;;;;4917686;29;20214;-78
2021/06/18 17:26:50;;;;;;;1.60;1.20;;;30.00;99.10;;;;;;4916812;29;20229;-77
2021/06/18 17:29:17;;;;;;;3.80;1.27;;;29.90;99.90;;;;;;4916546;29;20217;-77
2021/06/18 17:31:44;;;;;;;2.65;1.45;;;29.90;99.70;;;;;;4916623;29;20732;-77
2021/06/18 17:34:12;;;;;;;1.83;1.02;;;29.70;99.20;;;;;;4916574;29;20263;-77
2021/06/18 17:36:39;;;;;;;2.10;1.30;;;29.50;99.20;;;;;;4916368;29;20212;-76
2021/06/18 17:39:07;;;;;;;2.10;1.30;;;29.40;99.70;;;;;;4916301;29;20641;-77
2021/06/18 17:41:36;;;;;;;1.98;1.17;;;29.40;99.60;;;;;;4916731;29;20665;-77
2021/06/18 17:44:03;;;;;;;2.10;1.10;;;29.50;99.70;;;;;;4917083;29;20246;-77
2021/06/18 17:46:31;;;;;;;0.90;0.80;;;29.40;99.70;;;;;;4916937;29;20228;-77
2021/06/18 17:48:57;;;;;;;1.25;0.85;;;29.40;98.60;;;;;;4916555;29;20261;-77
2021/06/18 17:51:26;;;;;;;2.05;0.90;;;29.30;98.60;;;;;;4917031;29;20220;-76
2021/06/18 17:53:52;;;;;;;1.35;0.90;;;29.10;98.80;;;;;;4917212;29;20220;-77
2021/06/18 17:56:21;;;;;;;1.10;1.00;;;29.00;99.40;;;;;;4916599;29;20669;-78
2021/06/18 17:58:48;;;;;;;1.70;1.15;;;28.90;99.40;;;;;;4916515;29;20272;-77
2021/06/18 18:01:15;;;;;;;1.00;0.80;;;28.80;99.90;;;;;;4917264;29;20216;-80
2021/06/18 18:03:42;;;;;;;2.65;0.80;;;28.70;99.90;;;;;;4916880;29;20676;-80
2021/06/18 18:06:12;;;;;;;1.10;1.00;;;28.70;99.90;;;;;;4916706;29;20235;-80
2021/06/18 18:08:40;;;;;;;2.67;1.10;;;28.50;99.90;;;;;;4917530;29;20259;-80
2021/06/18 18:11:07;;;;;;;1.63;1.17;;;28.40;99.90;;;;;;4917669;29;20213;-81
2021/06/18 18:13:34;;;;;;;1.20;0.90;;;28.30;99.90;;;;;;4916981;29;20209;-80
2021/06/18 18:16:02;;;;;;;1.52;0.90;;;28.30;99.90;;;;;;4920575;29;20206;-80
2021/06/18 18:18:29;;;;;;;2.25;0.93;;;28.20;99.90;;;;;;4920947;29;20237;-80
2021/06/18 18:20:56;;;;;;;1.33;0.80;;;28.20;99.90;;;;;;4920455;29;20244;-80
2021/06/18 18:23:23;;;;;;;1.10;0.70;;;28.10;99.90;;;;;;4920227;29;20576;-80
2021/06/18 18:25:54;;;;;;;1.63;0.90;;;28.10;99.90;;;;;;4920412;29;20209;-80
2021/06/18 18:28:21;;;;;;;1.30;0.80;;;27.90;99.90;;;;;;4920037;29;20261;-80
2021/06/18 18:30:47;;;;;;;3.47;0.90;;;27.80;99.90;;;;;;4920213;29;20213;-80
2021/06/18 18:33:14;;;;;;;3.58;0.80;;;27.80;99.90;;;;;;4920379;29;20210;-79
2021/06/18 18:35:42;;;;;;;0.98;0.75;;;27.70;99.90;;;;;;4920456;29;20212;-79
2021/06/18 18:38:09;;;;;;;0.93;0.50;;;27.60;99.90;;;;;;4920247;29;20284;-80